sensor_id;sensor_type;location;lat;lon;timestamp;pressure;altitude;pressure_sealevel;temperature;humidity
26697;BME280;14312;52.614;13.496;2023-07-29T00:02:10;100176.78;;;21.66;70.62
26697;BME280;14312;52.614;13.496;2023-07-29T00:04:56;100174.22;;;21.61;70.54
26697;BME280;14312;52.614;13.496;2023-07-29T00:07:42;100173.94;;;21.54;70.59
26697;BME280;14312;52.614;13.496;2023-07-29T00:10:28;100171.41;;;21.48;70.59
26697;BME280;14312;52.614;13.496;2023-07-29T00:13:14;100165.69;;;21.41;70.74
26697;BME280;14312;52.614;13.496;2023-07-29T00:16:00;100158.06;;;21.35;70.72
26697;BME280;14312;52.614;13.496;2023-07-29T00:18:46;100158.22;;;21.30;70.75
26697;BME280;14312;52.614;13.496;2023-07-29T00:21:32;100171.16;;;21.24;70.80
26697;BME280;14312;52.614;13.496;2023-07-29T00:24:18;100164.78;;;21.20;70.69
26697;BME280;14312;52.614;13.496;2023-07-29T00:27:04;100162.22;;;21.15;70.94
26697;BME280;14312;52.614;13.496;2023-07-29T00:29:50;100159.69;;;21.10;71.00
26697;BME280;14312;52.614;13.496;2023-07-29T00:32:36;100157.91;;;21.05;71.03
26697;BME280;14312;52.614;13.496;2023-07-29T00:35:22;100161.91;;;20.99;71.10
26697;BME280;14312;52.614;13.496;2023-07-29T00:38:08;100163.81;;;20.99;71.22
26697;BME280;14312;52.614;13.496;2023-07-29T00:40:57;100168.75;;;20.97;71.25
26697;BME280;14312;52.614;13.496;2023-07-29T00:43:43;100163.53;;;20.92;71.52
26697;BME280;14312;52.614;13.496;2023-07-29T00:46:29;100155.72;;;20.90;71.48
26697;BME280;14312;52.614;13.496;2023-07-29T00:49:15;100158.75;;;20.89;71.71
26697;BME280;14312;52.614;13.496;2023-07-29T00:52:01;100156.69;;;20.86;71.63
26697;BME280;14312;52.614;13.496;2023-07-29T00:54:47;100159.38;;;20.86;71.55
26697;BME280;14312;52.614;13.496;2023-07-29T00:57:33;100167.03;;;20.84;71.48
26697;BME280;14312;52.614;13.496;2023-07-29T01:00:21;100161.59;;;20.84;71.43
26697;BME280;14312;52.614;13.496;2023-07-29T01:03:08;100155.25;;;20.80;71.61
26697;BME280;14312;52.614;13.496;2023-07-29T01:06:12;100158.75;;;20.80;71.71
26697;BME280;14312;52.614;13.496;2023-07-29T01:09:04;100156.53;;;20.74;71.65
26697;BME280;14312;52.614;13.496;2023-07-29T01:12:02;100149.53;;;20.73;72.25
26697;BME280;14312;52.614;13.496;2023-07-29T01:14:59;100145.53;;;20.70;72.08
26697;BME280;14312;52.614;13.496;2023-07-29T01:17:52;100156.22;;;20.66;71.88
26697;BME280;14312;52.614;13.496;2023-07-29T01:20:40;100153.63;;;20.61;71.64
26697;BME280;14312;52.614;13.496;2023-07-29T01:23:30;100139.66;;;20.59;71.53
26697;BME280;14312;52.614;13.496;2023-07-29T01:26:16;100139.31;;;20.52;71.62
26697;BME280;14312;52.614;13.496;2023-07-29T01:29:02;100133.75;;;20.49;71.54
26697;BME280;14312;52.614;13.496;2023-07-29T01:31:51;100133.59;;;20.45;71.77
26697;BME280;14312;52.614;13.496;2023-07-29T01:34:45;100129.91;;;20.41;71.96
26697;BME280;14312;52.614;13.496;2023-07-29T01:37:34;100135.50;;;20.36;71.84
26697;BME280;14312;52.614;13.496;2023-07-29T01:40:26;100137.72;;;20.34;71.48
26697;BME280;14312;52.614;13.496;2023-07-29T01:43:13;100131.44;;;20.25;71.69
26697;BME280;14312;52.614;13.496;2023-07-29T01:46:00;100130.69;;;20.24;71.77
26697;BME280;14312;52.614;13.496;2023-07-29T01:48:46;100133.81;;;20.18;71.81
26697;BME280;14312;52.614;13.496;2023-07-29T01:51:35;100136.06;;;20.16;71.82
26697;BME280;14312;52.614;13.496;2023-07-29T01:54:21;100132.38;;;20.12;71.71
26697;BME280;14312;52.614;13.496;2023-07-29T01:57:07;100135.75;;;20.09;72.12
26697;BME280;14312;52.614;13.496;2023-07-29T01:59:53;100139.53;;;20.08;72.21
26697;BME280;14312;52.614;13.496;2023-07-29T02:02:39;100144.78;;;20.04;72.42
26697;BME280;14312;52.614;13.496;2023-07-29T02:05:25;100140.81;;;20.02;72.17
26697;BME280;14312;52.614;13.496;2023-07-29T02:08:11;100142.41;;;20.03;72.09
26697;BME280;14312;52.614;13.496;2023-07-29T02:10:57;100146.22;;;20.02;72.25
26697;BME280;14312;52.614;13.496;2023-07-29T02:13:43;100143.03;;;20.00;72.30
26697;BME280;14312;52.614;13.496;2023-07-29T02:16:29;100130.59;;;19.99;72.39
26697;BME280;14312;52.614;13.496;2023-07-29T02:19:15;100131.25;;;19.96;72.12
26697;BME280;14312;52.614;13.496;2023-07-29T02:22:01;100125.84;;;19.96;72.37
26697;BME280;14312;52.614;13.496;2023-07-29T02:24:47;100128.84;;;19.94;72.20
26697;BME280;14312;52.614;13.496;2023-07-29T02:27:33;100142.19;;;19.90;71.96
26697;BME280;14312;52.614;13.496;2023-07-29T02:30:20;100139.34;;;19.87;72.03
26697;BME280;14312;52.614;13.496;2023-07-29T02:33:06;100146.16;;;19.84;71.84
26697;BME280;14312;52.614;13.496;2023-07-29T02:35:52;100146.81;;;19.81;72.03
26697;BME280;14312;52.614;13.496;2023-07-29T02:38:38;100150.13;;;19.78;71.90
26697;BME280;14312;52.614;13.496;2023-07-29T02:41:24;100153.44;;;19.75;71.91
26697;BME280;14312;52.614;13.496;2023-07-29T02:44:09;100154.06;;;19.72;72.06
26697;BME280;14312;52.614;13.496;2023-07-29T02:46:55;100147.06;;;19.71;72.11
26697;BME280;14312;52.614;13.496;2023-07-29T02:49:42;100146.56;;;19.69;71.95
26697;BME280;14312;52.614;13.496;2023-07-29T02:52:27;100143.88;;;19.69;72.41
26697;BME280;14312;52.614;13.496;2023-07-29T02:55:13;100147.38;;;19.70;72.52
26697;BME280;14312;52.614;13.496;2023-07-29T02:57:59;100134.66;;;19.70;72.46
26697;BME280;14312;52.614;13.496;2023-07-29T03:00:45;100136.25;;;19.71;72.79
26697;BME280;14312;52.614;13.496;2023-07-29T03:03:33;100139.44;;;19.73;72.85
26697;BME280;14312;52.614;13.496;2023-07-29T03:06:19;100142.63;;;19.75;72.63
26697;BME280;14312;52.614;13.496;2023-07-29T03:09:05;100136.59;;;19.78;72.88
26697;BME280;14312;52.614;13.496;2023-07-29T03:11:51;100129.91;;;19.76;72.93
26697;BME280;14312;52.614;13.496;2023-07-29T03:14:38;100134.38;;;19.80;72.53
26697;BME280;14312;52.614;13.496;2023-07-29T03:17:24;100128.97;;;19.80;72.25
26697;BME280;14312;52.614;13.496;2023-07-29T03:20:10;100127.38;;;19.79;72.43
26697;BME280;14312;52.614;13.496;2023-07-29T03:22:56;100132.78;;;19.79;72.23
26697;BME280;14312;52.614;13.496;2023-07-29T03:25:42;100142.00;;;19.78;72.35
26697;BME280;14312;52.614;13.496;2023-07-29T03:28:29;100132.59;;;19.76;72.32
26697;BME280;14312;52.614;13.496;2023-07-29T03:31:15;100134.19;;;19.77;72.45
26697;BME280;14312;52.614;13.496;2023-07-29T03:34:01;100131.81;;;19.75;72.56
26697;BME280;14312;52.614;13.496;2023-07-29T03:36:47;100131.03;;;19.75;72.53
26697;BME280;14312;52.614;13.496;2023-07-29T03:39:33;100126.41;;;19.75;72.78
26697;BME280;14312;52.614;13.496;2023-07-29T03:42:19;100123.22;;;19.73;72.78
26697;BME280;14312;52.614;13.496;2023-07-29T03:45:06;100126.41;;;19.75;72.89
26697;BME280;14312;52.614;13.496;2023-07-29T03:47:52;100124.03;;;19.74;73.07
26697;BME280;14312;52.614;13.496;2023-07-29T03:50:38;100128.00;;;19.76;73.02
26697;BME280;14312;52.614;13.496;2023-07-29T03:53:24;100117.19;;;19.76;72.94
26697;BME280;14312;52.614;13.496;2023-07-29T03:56:10;100106.38;;;19.76;72.85
26697;BME280;14312;52.614;13.496;2023-07-29T03:59:03;100123.56;;;19.80;73.21
26697;BME280;14312;52.614;13.496;2023-07-29T04:01:49;100123.56;;;19.80;73.05
26697;BME280;14312;52.614;13.496;2023-07-29T04:04:35;100128.97;;;19.80;72.85
26697;BME280;14312;52.614;13.496;2023-07-29T04:07:21;100124.69;;;19.79;73.09
26697;BME280;14312;52.614;13.496;2023-07-29T04:10:07;100128.34;;;19.83;72.84
26697;BME280;14312;52.614;13.496;2023-07-29T04:12:53;100126.44;;;19.84;73.18
26697;BME280;14312;52.614;13.496;2023-07-29T04:15:39;100127.72;;;19.86;72.95
26697;BME280;14312;52.614;13.496;2023-07-29T04:18:25;100125.03;;;19.86;73.05
26697;BME280;14312;52.614;13.496;2023-07-29T04:21:11;100120.09;;;19.88;72.89
26697;BME280;14312;52.614;13.496;2023-07-29T04:23:57;100122.47;;;19.90;73.01
26697;BME280;14312;52.614;13.496;2023-07-29T04:26:43;100121.53;;;19.94;73.29
26697;BME280;14312;52.614;13.496;2023-07-29T04:29:29;100115.03;;;19.96;73.19
26697;BME280;14312;52.614;13.496;2023-07-29T04:32:15;100117.09;;;19.99;73.16
26697;BME280;14312;52.614;13.496;2023-07-29T04:35:01;100120.78;;;20.03;73.15
26697;BME280;14312;52.614;13.496;2023-07-29T04:37:48;100121.72;;;20.07;73.44
26697;BME280;14312;52.614;13.496;2023-07-29T04:40:34;100121.09;;;20.10;73.13
26697;BME280;14312;52.614;13.496;2023-07-29T04:43:20;100115.84;;;20.13;73.39
26697;BME280;14312;52.614;13.496;2023-07-29T04:46:07;100114.25;;;20.21;73.52
26697;BME280;14312;52.614;13.496;2023-07-29T04:48:54;100119.50;;;20.26;73.59
26697;BME280;14312;52.614;13.496;2023-07-29T04:51:40;100124.44;;;20.32;73.54
26697;BME280;14312;52.614;13.496;2023-07-29T04:54:25;100131.03;;;20.40;73.50
26697;BME280;14312;52.614;13.496;2023-07-29T04:57:11;100127.03;;;20.46;73.77
26697;BME280;14312;52.614;13.496;2023-07-29T04:59:57;100123.88;;;20.53;73.69
26697;BME280;14312;52.614;13.496;2023-07-29T05:02:43;100134.69;;;20.61;73.72
26697;BME280;14312;52.614;13.496;2023-07-29T05:05:29;100123.06;;;20.69;73.73
26697;BME280;14312;52.614;13.496;2023-07-29T05:08:15;100128.16;;;20.80;73.87
26697;BME280;14312;52.614;13.496;2023-07-29T05:11:01;100119.25;;;20.88;73.94
26697;BME280;14312;52.614;13.496;2023-07-29T05:13:47;100120.34;;;20.95;73.87
26697;BME280;14312;52.614;13.496;2023-07-29T05:16:33;100122.38;;;21.07;73.90
26697;BME280;14312;52.614;13.496;2023-07-29T05:19:19;100108.03;;;21.15;73.85
26697;BME280;14312;52.614;13.496;2023-07-29T05:22:05;100106.13;;;21.24;73.81
26697;BME280;14312;52.614;13.496;2023-07-29T05:24:50;100109.56;;;21.33;73.86
26697;BME280;14312;52.614;13.496;2023-07-29T05:27:36;100110.84;;;21.44;73.55
26697;BME280;14312;52.614;13.496;2023-07-29T05:30:22;100110.31;;;21.51;73.48
26697;BME280;14312;52.614;13.496;2023-07-29T05:33:08;100105.97;;;21.59;73.45
26697;BME280;14312;52.614;13.496;2023-07-29T05:35:54;100102.44;;;21.67;73.45
26697;BME280;14312;52.614;13.496;2023-07-29T05:38:40;100101.13;;;21.73;73.56
26697;BME280;14312;52.614;13.496;2023-07-29T05:41:26;100103.78;;;21.81;73.43
26697;BME280;14312;52.614;13.496;2023-07-29T05:44:13;100106.44;;;21.90;73.56
26697;BME280;14312;52.614;13.496;2023-07-29T05:46:59;100114.72;;;22.02;73.65
26697;BME280;14312;52.614;13.496;2023-07-29T05:49:45;100115.13;;;22.13;73.80
26697;BME280;14312;52.614;13.496;2023-07-29T05:52:31;100110.88;;;22.24;73.78
26697;BME280;14312;52.614;13.496;2023-07-29T05:55:17;100098.84;;;22.34;73.37
26697;BME280;14312;52.614;13.496;2023-07-29T05:58:03;100101.59;;;22.46;72.98
26697;BME280;14312;52.614;13.496;2023-07-29T06:00:49;100093.41;;;22.54;72.76
26697;BME280;14312;52.614;13.496;2023-07-29T06:03:35;100096.69;;;22.60;72.61
26697;BME280;14312;52.614;13.496;2023-07-29T06:06:21;100095.38;;;22.66;72.21
26697;BME280;14312;52.614;13.496;2023-07-29T06:09:09;100099.00;;;22.70;72.24
26697;BME280;14312;52.614;13.496;2023-07-29T06:11:54;100101.41;;;22.72;72.30
26697;BME280;14312;52.614;13.496;2023-07-29T06:14:40;100095.78;;;22.77;72.18
26697;BME280;14312;52.614;13.496;2023-07-29T06:17:26;100076.44;;;22.78;72.21
26697;BME280;14312;52.614;13.496;2023-07-29T06:20:12;100077.81;;;22.84;72.42
26697;BME280;14312;52.614;13.496;2023-07-29T06:22:58;100076.00;;;22.88;72.42
26697;BME280;14312;52.614;13.496;2023-07-29T06:25:44;100076.25;;;22.95;72.42
26697;BME280;14312;52.614;13.496;2023-07-29T06:28:30;100069.47;;;23.01;72.43
26697;BME280;14312;52.614;13.496;2023-07-29T06:31:16;100073.56;;;23.08;71.88
26697;BME280;14312;52.614;13.496;2023-07-29T06:34:02;100074.47;;;23.12;72.18
26697;BME280;14312;52.614;13.496;2023-07-29T06:36:47;100071.53;;;23.17;72.10
26697;BME280;14312;52.614;13.496;2023-07-29T06:39:34;100076.06;;;23.25;71.78
26697;BME280;14312;52.614;13.496;2023-07-29T06:42:20;100073.59;;;23.32;72.21
26697;BME280;14312;52.614;13.496;2023-07-29T06:45:06;100082.09;;;23.42;72.18
26697;BME280;14312;52.614;13.496;2023-07-29T06:47:52;100078.16;;;23.52;71.74
26697;BME280;14312;52.614;13.496;2023-07-29T06:50:38;100076.81;;;23.58;71.86
26697;BME280;14312;52.614;13.496;2023-07-29T06:53:24;100075.47;;;23.64;72.00
26697;BME280;14312;52.614;13.496;2023-07-29T06:56:11;100077.50;;;23.79;71.41
26697;BME280;14312;52.614;13.496;2023-07-29T06:58:56;100073.81;;;23.88;70.94
26697;BME280;14312;52.614;13.496;2023-07-29T07:01:42;100070.91;;;23.93;70.88
26697;BME280;14312;52.614;13.496;2023-07-29T07:04:28;100074.97;;;23.99;70.96
26697;BME280;14312;52.614;13.496;2023-07-29T07:07:15;100084.22;;;24.10;70.56
26697;BME280;14312;52.614;13.496;2023-07-29T07:10:01;100092.59;;;24.17;70.21
26697;BME280;14312;52.614;13.496;2023-07-29T07:12:47;100080.38;;;24.23;70.42
26697;BME280;14312;52.614;13.496;2023-07-29T07:15:33;100079.00;;;24.29;70.16
26697;BME280;14312;52.614;13.496;2023-07-29T07:18:19;100078.41;;;24.36;70.14
26697;BME280;14312;52.614;13.496;2023-07-29T07:21:07;100085.28;;;24.45;70.11
26697;BME280;14312;52.614;13.496;2023-07-29T07:23:53;100085.94;;;24.54;69.76
26697;BME280;14312;52.614;13.496;2023-07-29T07:26:39;100092.47;;;24.66;69.36
26697;BME280;14312;52.614;13.496;2023-07-29T07:29:25;100088.00;;;24.73;69.42
26697;BME280;14312;52.614;13.496;2023-07-29T07:32:11;100096.38;;;24.80;69.49
26697;BME280;14312;52.614;13.496;2023-07-29T07:34:57;100088.31;;;24.84;68.94
26697;BME280;14312;52.614;13.496;2023-07-29T07:37:43;100091.72;;;24.93;68.51
26697;BME280;14312;52.614;13.496;2023-07-29T07:40:31;100092.69;;;25.01;68.74
26697;BME280;14312;52.614;13.496;2023-07-29T07:43:17;100075.72;;;25.07;67.84
26697;BME280;14312;52.614;13.496;2023-07-29T07:46:03;100075.91;;;25.14;67.60
26697;BME280;14312;52.614;13.496;2023-07-29T07:48:49;100076.78;;;25.18;67.39
26697;BME280;14312;52.614;13.496;2023-07-29T07:51:34;100072.19;;;25.22;67.44
26697;BME280;14312;52.614;13.496;2023-07-29T07:54:20;100062.97;;;25.27;67.36
26697;BME280;14312;52.614;13.496;2023-07-29T07:57:06;100068.50;;;25.30;67.54
26697;BME280;14312;52.614;13.496;2023-07-29T07:59:52;100062.34;;;25.33;67.54
26697;BME280;14312;52.614;13.496;2023-07-29T08:02:38;100058.47;;;25.34;67.79
26697;BME280;14312;52.614;13.496;2023-07-29T08:05:24;100054.78;;;25.43;67.93
26697;BME280;14312;52.614;13.496;2023-07-29T08:08:09;100058.09;;;25.52;67.99
26697;BME280;14312;52.614;13.496;2023-07-29T08:10:58;100052.16;;;25.62;67.68
26697;BME280;14312;52.614;13.496;2023-07-29T08:13:44;100043.66;;;25.67;67.51
26697;BME280;14312;52.614;13.496;2023-07-29T08:16:30;100054.06;;;25.77;67.16
26697;BME280;14312;52.614;13.496;2023-07-29T08:19:18;100049.53;;;25.85;66.95
26697;BME280;14312;52.614;13.496;2023-07-29T08:22:04;100045.75;;;25.89;66.65
26697;BME280;14312;52.614;13.496;2023-07-29T08:24:51;100050.50;;;25.92;66.20
26697;BME280;14312;52.614;13.496;2023-07-29T08:27:37;100052.16;;;25.97;65.51
26697;BME280;14312;52.614;13.496;2023-07-29T08:30:22;100050.66;;;25.99;65.72
26697;BME280;14312;52.614;13.496;2023-07-29T08:33:08;100049.91;;;26.02;65.82
26697;BME280;14312;52.614;13.496;2023-07-29T08:35:54;100053.16;;;26.08;65.70
26697;BME280;14312;52.614;13.496;2023-07-29T08:38:40;100050.22;;;26.17;65.66
26697;BME280;14312;52.614;13.496;2023-07-29T08:41:29;100050.47;;;26.27;65.06
26697;BME280;14312;52.614;13.496;2023-07-29T08:44:18;100048.69;;;26.35;65.63
26697;BME280;14312;52.614;13.496;2023-07-29T08:47:07;100051.97;;;26.44;65.23
26697;BME280;14312;52.614;13.496;2023-07-29T08:49:53;100047.09;;;26.53;64.47
26697;BME280;14312;52.614;13.496;2023-07-29T08:52:40;100029.22;;;26.59;64.01
26697;BME280;14312;52.614;13.496;2023-07-29T08:55:28;100028.66;;;26.69;62.75
26697;BME280;14312;52.614;13.496;2023-07-29T08:58:15;100034.25;;;26.76;62.67
26697;BME280;14312;52.614;13.496;2023-07-29T09:01:01;100032.72;;;26.79;62.67
26697;BME280;14312;52.614;13.496;2023-07-29T09:03:47;100032.06;;;26.85;63.55
26697;BME280;14312;52.614;13.496;2023-07-29T09:06:34;100026.38;;;26.94;62.77
26697;BME280;14312;52.614;13.496;2023-07-29T09:09:21;100040.91;;;26.98;62.29
26697;BME280;14312;52.614;13.496;2023-07-29T09:12:08;100033.50;;;26.99;62.63
26697;BME280;14312;52.614;13.496;2023-07-29T09:14:53;100040.13;;;26.98;62.84
26697;BME280;14312;52.614;13.496;2023-07-29T09:17:42;100044.00;;;26.97;63.01
26697;BME280;14312;52.614;13.496;2023-07-29T09:20:28;100031.91;;;26.98;62.55
26697;BME280;14312;52.614;13.496;2023-07-29T09:23:14;100019.03;;;26.98;63.19
26697;BME280;14312;52.614;13.496;2023-07-29T09:26:01;100016.06;;;27.07;63.00
26697;BME280;14312;52.614;13.496;2023-07-29T09:28:52;100007.59;;;27.15;62.37
26697;BME280;14312;52.614;13.496;2023-07-29T09:31:38;100005.38;;;27.24;63.13
26697;BME280;14312;52.614;13.496;2023-07-29T09:34:24;99999.34;;;27.38;62.34
26697;BME280;14312;52.614;13.496;2023-07-29T09:37:15;100000.31;;;27.49;61.78
26697;BME280;14312;52.614;13.496;2023-07-29T09:40:02;100002.00;;;27.57;62.13
26697;BME280;14312;52.614;13.496;2023-07-29T09:42:53;99995.88;;;27.67;61.55
26697;BME280;14312;52.614;13.496;2023-07-29T09:45:39;99997.56;;;27.76;61.04
26697;BME280;14312;52.614;13.496;2023-07-29T09:48:25;99997.25;;;27.81;60.78
26697;BME280;14312;52.614;13.496;2023-07-29T09:51:13;99988.69;;;27.86;60.15
26697;BME280;14312;52.614;13.496;2023-07-29T09:54:02;99982.47;;;27.89;59.45
26697;BME280;14312;52.614;13.496;2023-07-29T09:56:48;99979.75;;;27.89;59.46
26697;BME280;14312;52.614;13.496;2023-07-29T09:59:34;99986.81;;;27.90;59.06
26697;BME280;14312;52.614;13.496;2023-07-29T10:02:20;99970.38;;;27.90;58.76
26697;BME280;14312;52.614;13.496;2023-07-29T10:05:08;99971.53;;;27.89;59.37
26697;BME280;14312;52.614;13.496;2023-07-29T10:07:55;99970.72;;;27.88;59.59
26697;BME280;14312;52.614;13.496;2023-07-29T10:10:42;99968.06;;;27.92;59.68
26697;BME280;14312;52.614;13.496;2023-07-29T10:13:28;99964.13;;;27.93;58.83
26697;BME280;14312;52.614;13.496;2023-07-29T10:16:14;99962.97;;;27.94;58.50
26697;BME280;14312;52.614;13.496;2023-07-29T10:19:00;99963.34;;;27.92;59.24
26697;BME280;14312;52.614;13.496;2023-07-29T10:21:48;99962.59;;;27.95;59.07
26697;BME280;14312;52.614;13.496;2023-07-29T10:24:36;99954.84;;;28.01;59.23
26697;BME280;14312;52.614;13.496;2023-07-29T10:27:27;99958.81;;;28.07;59.26
26697;BME280;14312;52.614;13.496;2023-07-29T10:30:14;99954.59;;;28.13;59.06
26697;BME280;14312;52.614;13.496;2023-07-29T10:33:04;99944.84;;;28.16;59.07
26697;BME280;14312;52.614;13.496;2023-07-29T10:35:52;99946.06;;;28.18;58.17
26697;BME280;14312;52.614;13.496;2023-07-29T10:38:40;99948.81;;;28.18;57.72
26697;BME280;14312;52.614;13.496;2023-07-29T10:41:55;99941.31;;;28.15;57.81
26697;BME280;14312;52.614;13.496;2023-07-29T10:44:45;99925.13;;;28.03;56.90
26697;BME280;14312;52.614;13.496;2023-07-29T10:47:32;99930.09;;;27.94;57.57
26697;BME280;14312;52.614;13.496;2023-07-29T10:50:20;99916.75;;;27.89;57.80
26697;BME280;14312;52.614;13.496;2023-07-29T10:53:06;99916.31;;;27.87;57.45
26697;BME280;14312;52.614;13.496;2023-07-29T10:55:52;99910.03;;;27.83;58.06
26697;BME280;14312;52.614;13.496;2023-07-29T10:58:38;99907.28;;;27.83;57.95
26697;BME280;14312;52.614;13.496;2023-07-29T11:01:28;99903.78;;;27.86;58.69
26697;BME280;14312;52.614;13.496;2023-07-29T11:10:00;99883.81;;;27.85;56.44
26697;BME280;14312;52.614;13.496;2023-07-29T11:12:47;99888.44;;;27.78;56.73
26697;BME280;14312;52.614;13.496;2023-07-29T11:15:33;99903.59;;;27.68;56.39
26697;BME280;14312;52.614;13.496;2023-07-29T11:18:20;99926.53;;;27.56;56.88
26697;BME280;14312;52.614;13.496;2023-07-29T11:21:06;99949.34;;;27.41;57.24
26697;BME280;14312;52.614;13.496;2023-07-29T11:23:53;99934.25;;;27.24;57.40
26697;BME280;14312;52.614;13.496;2023-07-29T11:26:46;99933.56;;;27.05;57.86
26697;BME280;14312;52.614;13.496;2023-07-29T11:29:32;99981.16;;;26.77;57.50
26697;BME280;14312;52.614;13.496;2023-07-29T11:32:18;99991.50;;;26.45;57.77
26697;BME280;14312;52.614;13.496;2023-07-29T11:35:08;100001.63;;;26.06;58.02
26697;BME280;14312;52.614;13.496;2023-07-29T11:37:55;99987.34;;;25.59;58.09
26697;BME280;14312;52.614;13.496;2023-07-29T11:40:56;99972.28;;;25.14;59.66
26697;BME280;14312;52.614;13.496;2023-07-29T11:43:43;99974.34;;;24.74;59.82
26697;BME280;14312;52.614;13.496;2023-07-29T11:46:29;99961.84;;;24.41;61.00
26697;BME280;14312;52.614;13.496;2023-07-29T11:49:15;99963.28;;;24.11;61.27
26697;BME280;14312;52.614;13.496;2023-07-29T11:52:02;99957.25;;;23.90;62.48
26697;BME280;14312;52.614;13.496;2023-07-29T11:54:48;99962.19;;;23.72;63.11
26697;BME280;14312;52.614;13.496;2023-07-29T11:57:36;99965.72;;;23.60;63.68
26697;BME280;14312;52.614;13.496;2023-07-29T12:00:23;99967.78;;;23.51;64.78
26697;BME280;14312;52.614;13.496;2023-07-29T12:03:09;99962.09;;;23.44;65.48
26697;BME280;14312;52.614;13.496;2023-07-29T12:05:56;99954.84;;;23.36;65.83
26697;BME280;14312;52.614;13.496;2023-07-29T12:08:43;99957.91;;;23.34;65.98
26697;BME280;14312;52.614;13.496;2023-07-29T12:11:29;99947.84;;;23.35;66.57
26697;BME280;14312;52.614;13.496;2023-07-29T12:14:16;99944.06;;;23.39;66.95
26697;BME280;14312;52.614;13.496;2023-07-29T12:17:04;99939.66;;;23.47;67.84
26697;BME280;14312;52.614;13.496;2023-07-29T12:19:54;99948.50;;;23.56;68.26
26697;BME280;14312;52.614;13.496;2023-07-29T12:22:40;99942.22;;;23.68;67.79
26697;BME280;14312;52.614;13.496;2023-07-29T12:25:26;99940.25;;;23.80;67.74
26697;BME280;14312;52.614;13.496;2023-07-29T12:28:12;99938.66;;;23.92;67.82
26697;BME280;14312;52.614;13.496;2023-07-29T12:30:58;99942.91;;;24.05;67.59
26697;BME280;14312;52.614;13.496;2023-07-29T12:33:44;99931.53;;;24.15;67.63
26697;BME280;14312;52.614;13.496;2023-07-29T12:36:48;99946.69;;;24.28;67.71
26697;BME280;14312;52.614;13.496;2023-07-29T12:39:35;99941.44;;;24.35;67.23
26697;BME280;14312;52.614;13.496;2023-07-29T12:42:25;99943.22;;;24.43;67.42
26697;BME280;14312;52.614;13.496;2023-07-29T12:45:11;99942.69;;;24.53;66.97
26697;BME280;14312;52.614;13.496;2023-07-29T12:47:57;99937.41;;;24.61;66.95
26697;BME280;14312;52.614;13.496;2023-07-29T12:50:43;99931.78;;;24.69;66.57
26697;BME280;14312;52.614;13.496;2023-07-29T12:53:29;99940.22;;;24.80;66.70
26697;BME280;14312;52.614;13.496;2023-07-29T12:56:15;99931.22;;;24.91;67.59
26697;BME280;14312;52.614;13.496;2023-07-29T12:59:01;99931.63;;;25.09;67.35
26697;BME280;14312;52.614;13.496;2023-07-29T13:01:47;99916.13;;;25.29;67.29
26697;BME280;14312;52.614;13.496;2023-07-29T13:04:34;99920.16;;;25.54;68.21
26697;BME280;14312;52.614;13.496;2023-07-29T13:07:19;99915.38;;;25.86;67.31
26697;BME280;14312;52.614;13.496;2023-07-29T13:10:06;99906.59;;;26.16;66.56
26697;BME280;14312;52.614;13.496;2023-07-29T13:12:52;99914.50;;;26.40;65.98
26697;BME280;14312;52.614;13.496;2023-07-29T13:15:37;99915.53;;;26.55;64.71
26697;BME280;14312;52.614;13.496;2023-07-29T13:18:23;99926.22;;;26.63;64.57
26697;BME280;14312;52.614;13.496;2023-07-29T13:21:09;99937.28;;;26.70;64.97
26697;BME280;14312;52.614;13.496;2023-07-29T13:23:58;99940.19;;;26.81;64.91
26697;BME280;14312;52.614;13.496;2023-07-29T13:26:44;99942.97;;;26.84;64.74
26697;BME280;14312;52.614;13.496;2023-07-29T13:29:30;99942.22;;;26.87;64.32
26697;BME280;14312;52.614;13.496;2023-07-29T13:32:31;99938.34;;;26.88;63.94
26697;BME280;14312;52.614;13.496;2023-07-29T13:35:17;99937.44;;;26.81;63.78
26697;BME280;14312;52.614;13.496;2023-07-29T13:38:03;99936.59;;;26.77;63.77
26697;BME280;14312;52.614;13.496;2023-07-29T13:40:48;99937.69;;;26.72;64.11
26697;BME280;14312;52.614;13.496;2023-07-29T13:43:36;99928.69;;;26.72;64.12
26697;BME280;14312;52.614;13.496;2023-07-29T13:46:22;99927.97;;;26.75;64.72
26697;BME280;14312;52.614;13.496;2023-07-29T13:49:08;99916.72;;;26.80;64.97
26697;BME280;14312;52.614;13.496;2023-07-29T13:51:54;99911.09;;;26.92;65.56
26697;BME280;14312;52.614;13.496;2023-07-29T13:54:40;99909.06;;;27.12;65.66
26697;BME280;14312;52.614;13.496;2023-07-29T13:57:26;99900.38;;;27.36;65.03
26697;BME280;14312;52.614;13.496;2023-07-29T14:00:12;99899.88;;;27.53;63.17
26697;BME280;14312;52.614;13.496;2023-07-29T14:02:58;99898.03;;;27.64;62.71
26697;BME280;14312;52.614;13.496;2023-07-29T14:05:44;99880.16;;;27.71;61.87
26697;BME280;14312;52.614;13.496;2023-07-29T14:08:30;99889.19;;;27.75;62.09
26697;BME280;14312;52.614;13.496;2023-07-29T14:11:15;99880.22;;;27.78;61.76
26697;BME280;14312;52.614;13.496;2023-07-29T14:14:01;99879.13;;;27.86;62.69
26697;BME280;14312;52.614;13.496;2023-07-29T14:16:47;99885.94;;;27.99;63.42
26697;BME280;14312;52.614;13.496;2023-07-29T14:19:34;99890.09;;;28.19;63.07
26697;BME280;14312;52.614;13.496;2023-07-29T14:22:20;99905.97;;;28.40;62.58
26697;BME280;14312;52.614;13.496;2023-07-29T14:25:06;99897.50;;;28.56;62.70
26697;BME280;14312;52.614;13.496;2023-07-29T14:27:53;99903.47;;;28.72;61.49
26697;BME280;14312;52.614;13.496;2023-07-29T14:30:39;99893.75;;;28.78;60.53